Time;durP1;ratioP1;P1;durP2;ratioP2;P2;SDS_P1;SDS_P2;PMS_P1;PMS_P2;Temp;Humidity;BMP_temperature;BMP_pressure;BME280_temperature;BME280_humidity;BME280_pressure;Samples;Min_cycle;Max_cycle;Signal;HPM_P1;HPM_P2
2021/08/23 00:00:36;;;;;;;44.37;41.23;;;;;;;18.68;100.00;102558.58;2016156;71;31489;-72
2021/08/23 00:06:02;;;;;;;42.17;39.27;;;;;;;18.69;100.00;102555.20;1971956;73;30954;-73
2021/08/23 00:11:27;;;;;;;42.43;39.53;;;;;;;18.64;100.00;102555.53;1971977;73;33495;-70
2021/08/23 00:16:52;;;;;;;43.43;40.33;;;;;;;18.58;100.00;102555.86;1971817;73;30951;-74
2021/08/23 00:22:21;;;;;;;42.07;39.07;;;;;;;18.50;100.00;102558.73;1962890;71;31061;-72
2021/08/23 00:27:46;;;;;;;45.13;41.93;;;;;;;18.48;100.00;102563.00;1971979;73;31459;-71
2021/08/23 00:33:18;;;;;;;42.83;39.83;;;;;;;18.43;100.00;102563.88;1971799;73;31004;-73
2021/08/23 00:38:42;;;;;;;46.50;43.13;;;;;;;18.44;100.00;102565.54;1971849;73;31013;-73
2021/08/23 00:44:08;;;;;;;46.43;43.03;;;;;;;18.52;100.00;102573.93;1971832;73;31121;-71
2021/08/23 00:49:34;;;;;;;44.33;41.00;;;;;;;18.52;100.00;102571.98;1972005;73;31516;-72
2021/08/23 00:54:59;;;;;;;46.13;42.63;;;;;;;18.41;100.00;102570.36;1972008;73;31558;-73
2021/08/23 01:00:24;;;;;;;48.73;45.13;;;;;;;18.37;100.00;102574.06;1971885;73;30959;-69
2021/08/23 01:05:51;;;;;;;49.97;46.07;;;;;;;18.20;100.00;102578.16;1972113;73;31511;-74
2021/08/23 01:08:26;;;;;;;48.83;45.13;;;;;;;18.14;100.00;102581.32;1934637;74;24125;-74
2021/08/23 01:13:55;;;;;;;49.47;45.83;;;;;;;18.17;100.00;102572.28;1972032;73;31029;-72
2021/08/23 01:19:21;;;;;;;49.80;45.80;;;;;;;18.18;100.00;102581.00;1972004;73;31107;-73
2021/08/23 01:24:49;;;;;;;55.43;50.80;;;;;;;18.20;100.00;102577.31;1971840;73;30967;-74
2021/08/23 01:30:22;;;;;;;54.20;49.60;;;;;;;18.15;100.00;102580.16;1971823;73;31019;-72
2021/08/23 01:35:46;;;;;;;56.97;52.30;;;;;;;17.97;100.00;102585.13;1972068;72;30950;-71
2021/08/23 01:41:12;;;;;;;56.83;51.87;;;;;;;17.80;100.00;102584.68;1971910;73;30943;-71
2021/08/23 01:46:36;;;;;;;59.40;53.93;;;;;;;17.73;100.00;102584.43;1972042;73;31008;-73
2021/08/23 01:52:02;;;;;;;58.23;52.77;;;;;;;17.67;100.00;102591.20;1971859;73;31093;-71
2021/08/23 01:57:26;;;;;;;57.93;52.67;;;;;;;17.62;100.00;102591.82;1971810;73;30925;-72
2021/08/23 02:02:51;;;;;;;56.67;51.53;;;;;;;17.62;100.00;102595.48;1971843;73;30981;-72
2021/08/23 02:08:15;;;;;;;56.50;51.60;;;;;;;17.69;100.00;102603.57;1971953;72;33480;-74
2021/08/23 02:13:40;;;;;;;56.60;51.47;;;;;;;17.73;100.00;102597.64;1972019;73;31072;-73
2021/08/23 02:19:04;;;;;;;53.43;48.93;;;;;;;17.76;100.00;102609.70;1972029;73;33420;-71
2021/08/23 02:24:39;;;;;;;51.20;47.00;;;;;;;17.69;100.00;102612.84;1971810;73;31079;-72
2021/08/23 02:30:05;;;;;;;49.73;45.83;;;;;;;17.38;100.00;102616.91;1971921;73;31036;-73
2021/08/23 02:35:30;;;;;;;52.73;48.60;;;;;;;17.31;100.00;102620.60;1971881;73;30959;-73
2021/08/23 02:40:56;;;;;;;50.63;46.77;;;;;;;17.09;100.00;102620.13;1972088;73;30951;-73
2021/08/23 02:46:20;;;;;;;49.70;46.00;;;;;;;17.07;100.00;102622.39;1972024;73;31522;-73
2021/08/23 02:51:51;;;;;;;51.87;48.10;;;;;;;16.86;100.00;102628.61;1971868;73;30951;-72
2021/08/23 02:57:19;;;;;;;50.07;46.17;;;;;;;16.71;100.00;102628.65;1971768;73;32964;-71
2021/08/23 03:02:43;;;;;;;49.73;45.97;;;;;;;16.68;100.00;102630.07;1971849;73;30967;-73
2021/08/23 03:08:08;;;;;;;49.23;45.70;;;;;;;16.56;100.00;102632.27;1971867;73;31064;-73
2021/08/23 03:13:32;;;;;;;49.07;45.40;;;;;;;16.43;100.00;102636.23;1971859;73;31035;-73
2021/08/23 03:18:57;;;;;;;49.10;45.40;;;;;;;16.37;100.00;102632.02;1971863;73;32998;-73
2021/08/23 03:24:21;;;;;;;49.23;45.57;;;;;;;16.62;100.00;102642.97;1971918;73;33420;-73
2021/08/23 03:29:50;;;;;;;47.70;44.17;;;;;;;16.71;100.00;102642.12;1971837;73;30994;-72
2021/08/23 03:35:12;;;;;;;48.90;45.20;;;;;;;16.82;100.00;102640.13;1971917;73;31061;-71
2021/08/23 03:40:37;;;;;;;49.07;45.37;;;;;;;16.97;100.00;102654.14;1972062;73;31467;-73
2021/08/23 03:46:01;;;;;;;49.20;45.50;;;;;;;17.06;100.00;102646.83;1972046;73;33433;-73
2021/08/23 03:51:25;;;;;;;47.40;43.73;;;;;;;17.14;100.00;102660.27;1971866;73;30987;-73
2021/08/23 03:56:50;;;;;;;47.10;43.63;;;;;;;17.10;100.00;102660.56;1971808;73;30971;-72
2021/08/23 04:02:15;;;;;;;45.63;42.23;;;;;;;17.15;100.00;102659.72;1903257;73;39903;-73
2021/08/23 04:07:39;;;;;;;47.60;44.10;;;;;;;17.21;100.00;102655.19;1971975;73;31474;-72
2021/08/23 04:13:05;;;;;;;45.10;41.83;;;;;;;17.14;100.00;102663.64;1971854;73;31039;-72
2021/08/23 04:18:30;;;;;;;46.37;43.07;;;;;;;17.17;100.00;102654.64;1971821;73;30959;-71
2021/08/23 04:23:54;;;;;;;46.47;43.17;;;;;;;17.17;100.00;102654.08;1971984;73;31497;-71
2021/08/23 04:29:19;;;;;;;46.67;43.23;;;;;;;17.16;100.00;102668.39;1971767;73;33151;-73
2021/08/23 04:34:43;;;;;;;44.37;41.13;;;;;;;17.08;100.00;102674.04;1971743;73;33001;-73
2021/08/23 04:40:10;;;;;;;46.37;42.97;;;;;;;17.21;100.00;102676.25;1971786;73;31052;-71
2021/08/23 04:45:35;;;;;;;46.57;43.27;;;;;;;17.14;100.00;102681.89;1972001;73;31036;-72
2021/08/23 04:51:03;;;;;;;46.47;43.07;;;;;;;17.24;100.00;102689.71;1971880;73;31112;-72
2021/08/23 04:56:28;;;;;;;44.60;41.40;;;;;;;17.24;100.00;102699.55;1972003;72;33445;-73
2021/08/23 05:01:52;;;;;;;45.43;42.23;;;;;;;17.30;100.00;102710.21;1971923;73;31050;-72
2021/08/23 05:07:17;;;;;;;44.60;41.30;;;;;;;17.17;100.00;102716.42;1971813;73;32947;-73
2021/08/23 05:12:41;;;;;;;43.73;40.67;;;;;;;17.21;100.00;102723.16;1972045;73;33587;-73
2021/08/23 05:18:08;;;;;;;44.80;41.50;;;;;;;17.18;100.00;102730.75;1971805;73;32929;-71
2021/08/23 05:23:32;;;;;;;44.63;41.50;;;;;;;17.20;100.00;102726.52;1971919;73;30981;-71
2021/08/23 05:28:57;;;;;;;45.37;42.17;;;;;;;17.16;100.00;102735.80;1971799;73;31029;-72
2021/08/23 05:34:21;;;;;;;46.27;43.10;;;;;;;17.16;100.00;102746.47;1971772;73;33449;-71
2021/08/23 05:39:46;;;;;;;44.70;41.60;;;;;;;17.17;100.00;102743.11;1971857;73;30980;-72
2021/08/23 05:45:11;;;;;;;44.43;41.23;;;;;;;17.19;100.00;102750.14;1971833;73;31061;-70
2021/08/23 05:50:37;;;;;;;47.73;44.53;;;;;;;17.20;100.00;102763.03;1972051;73;31639;-74
2021/08/23 05:56:02;;;;;;;48.37;45.17;;;;;;;17.27;100.00;102760.80;1971852;73;30957;-73
2021/08/23 06:01:27;;;;;;;47.47;44.23;;;;;;;17.25;100.00;102760.22;1972020;73;33422;-69
2021/08/23 06:06:52;;;;;;;47.63;44.33;;;;;;;17.28;100.00;102758.83;1971863;72;31081;-72
2021/08/23 06:12:17;;;;;;;47.53;44.33;;;;;;;17.32;100.00;102764.72;1972077;73;31480;-72
2021/08/23 06:17:42;;;;;;;47.07;43.87;;;;;;;17.35;100.00;102769.20;1971839;73;30956;-70
2021/08/23 06:23:11;;;;;;;46.90;43.73;;;;;;;17.28;100.00;102761.05;1937179;74;31573;-71
2021/08/23 06:28:35;;;;;;;46.27;43.07;;;;;;;17.39;100.00;102762.44;1971979;73;33455;-72
2021/08/23 06:34:00;;;;;;;49.33;45.70;;;;;;;17.41;100.00;102766.67;1972042;73;33496;-70
2021/08/23 06:39:27;;;;;;;48.63;45.13;;;;;;;17.46;100.00;102771.41;1971790;73;31049;-70
2021/08/23 06:44:52;;;;;;;48.47;45.17;;;;;;;17.37;100.00;102778.16;1971811;73;33067;-71
2021/08/23 06:50:16;;;;;;;46.83;43.57;;;;;;;17.49;100.00;102774.52;1971979;73;31455;-72
2021/08/23 06:55:41;;;;;;;48.30;44.90;;;;;;;17.47;100.00;102773.09;1971998;72;31599;-71
2021/08/23 07:01:05;;;;;;;48.00;44.50;;;;;;;17.54;100.00;102781.50;1971898;73;31028;-72
2021/08/23 07:06:31;;;;;;;44.17;41.23;;;;;;;17.61;100.00;102786.31;1971839;73;30975;-71
2021/08/23 07:11:57;;;;;;;45.83;42.40;;;;;;;17.76;100.00;102782.58;1971824;73;30973;-73
2021/08/23 07:17:22;;;;;;;44.77;41.77;;;;;;;17.87;100.00;102776.38;1971811;73;31043;-71
2021/08/23 07:22:46;;;;;;;46.60;43.43;;;;;;;17.80;100.00;102780.06;1971763;73;31145;-71
2021/08/23 07:28:13;;;;;;;47.17;43.73;;;;;;;17.80;100.00;102770.23;1971988;73;31384;-71
2021/08/23 07:33:37;;;;;;;45.70;42.30;;;;;;;17.87;100.00;102776.38;1971964;73;31531;-71
2021/08/23 07:39:02;;;;;;;45.07;42.17;;;;;;;18.05;100.00;102789.23;1971711;73;30975;-74
2021/08/23 07:44:46;;;;;;;46.23;43.27;;;;;;;18.09;100.00;102795.97;2016016;71;30940;-77
2021/08/23 07:50:13;;;;;;;47.33;44.17;;;;;;;17.92;100.00;102792.66;1972191;73;31589;-77
2021/08/23 07:55:38;;;;;;;45.50;42.50;;;;;;;18.01;100.00;102797.94;1971739;73;31060;-78
2021/08/23 08:01:04;;;;;;;47.23;44.13;;;;;;;17.97;100.00;102794.62;1971912;72;31528;-78
2021/08/23 08:06:48;;;;;;;47.07;43.97;;;;;;;18.01;100.00;102800.75;2016279;71;30970;-76
2021/08/23 08:12:18;;;;;;;46.23;43.20;;;;;;;17.99;100.00;102803.03;1971859;73;33409;-76
2021/08/23 08:18:02;;;;;;;44.97;42.07;;;;;;;18.00;100.00;102799.66;2016010;71;30999;-70
2021/08/23 08:23:33;;;;;;;42.00;39.17;;;;;;;18.17;100.00;102805.77;1971964;73;30974;-77
2021/08/23 08:28:58;;;;;;;42.00;39.20;;;;;;;18.33;100.00;102810.17;1971716;73;33515;-68
2021/08/23 08:34:22;;;;;;;43.10;40.23;;;;;;;18.80;100.00;102807.36;1971824;72;33030;-76
2021/08/23 08:39:47;;;;;;;41.00;38.50;;;;;;;18.66;100.00;102804.35;1972042;73;31055;-77
2021/08/23 08:45:16;;;;;;;42.37;39.60;;;;;;;18.94;100.00;102812.61;1971722;73;31039;-74
2021/08/23 08:50:41;;;;;;;44.63;41.77;;;;;;;18.69;100.00;102810.83;1971696;73;30972;-75
2021/08/23 08:56:06;;;;;;;47.93;44.83;;;;;;;18.56;100.00;102824.14;1971707;73;31056;-70
2021/08/23 09:01:31;;;;;;;43.33;40.43;;;;;;;18.60;100.00;102829.47;1971555;73;31053;-73
2021/08/23 09:07:00;;;;;;;40.83;38.30;;;;;;;18.57;100.00;102827.22;1971727;73;31049;-69
2021/08/23 09:12:25;;;;;;;42.50;39.90;;;;;;;18.82;100.00;102826.22;1971809;73;31183;-73
2021/08/23 09:18:00;;;;;;;42.03;39.23;;;;;;;18.76;100.00;102827.38;1971582;73;30970;-73
2021/08/23 09:23:37;;;;;;;42.17;39.47;;;;;;;18.85;100.00;102836.89;1971627;73;31036;-66
2021/08/23 09:26:11;;;;;;;40.53;37.93;;;;;;;18.74;100.00;102850.19;1934532;74;24129;-67
2021/08/23 09:31:38;;;;;;;45.20;42.30;;;;;;;18.58;100.00;102837.34;1971776;73;32992;-68
2021/08/23 09:37:04;;;;;;;43.60;41.07;;;;;;;18.58;100.00;102841.01;1971693;73;30960;-69
2021/08/23 09:42:29;;;;;;;44.40;41.73;;;;;;;18.33;100.00;102838.88;1971536;73;30973;-69
2021/08/23 09:48:13;;;;;;;43.80;41.10;;;;;;;18.35;100.00;102841.69;2007325;71;30896;-69
2021/08/23 09:53:44;;;;;;;43.20;40.50;;;;;;;18.43;100.00;102854.30;1971686;73;33568;-75
2021/08/23 09:59:12;;;;;;;43.33;40.60;;;;;;;18.55;100.00;102848.64;1971622;73;31030;-67
2021/08/23 10:04:38;;;;;;;43.77;41.07;;;;;;;18.57;100.00;102848.33;1971590;73;30982;-76
2021/08/23 10:10:06;;;;;;;41.23;38.77;;;;;;;18.69;100.00;102850.81;1971605;73;31021;-76
2021/08/23 10:15:32;;;;;;;41.67;39.17;;;;;;;18.71;100.00;102855.56;1971749;73;31455;-68
2021/08/23 10:20:58;;;;;;;42.07;39.37;;;;;;;18.62;100.00;102856.19;1969584;71;33516;-75
2021/08/23 10:26:24;;;;;;;40.50;37.90;;;;;;;18.66;100.00;102862.06;1971597;73;31073;-75
2021/08/23 10:31:52;;;;;;;39.70;37.20;;;;;;;18.61;100.00;102857.31;1971791;73;31067;-70
2021/08/23 10:37:21;;;;;;;38.87;36.50;;;;;;;18.75;100.00;102863.14;1971864;73;31447;-75
2021/08/23 10:42:55;;;;;;;38.70;36.23;;;;;;;18.79;100.00;102862.83;1971733;73;31512;-70
2021/08/23 10:48:22;;;;;;;41.40;38.93;;;;;;;18.79;100.00;102857.20;1971718;73;31125;-74
2021/08/23 10:53:57;;;;;;;40.83;38.43;;;;;;;18.71;100.00;102864.86;1971708;73;31464;-74
2021/08/23 10:59:39;;;;;;;39.00;36.67;;;;;;;18.90;100.00;102868.69;1971724;72;30947;-67
2021/08/23 11:05:09;;;;;;;39.23;36.93;;;;;;;18.91;100.00;102868.94;1971641;73;31019;-70
2021/08/23 11:10:39;;;;;;;38.40;36.00;;;;;;;19.04;100.00;102878.13;1971705;73;33470;-66
2021/08/23 11:16:11;;;;;;;39.63;37.43;;;;;;;19.03;100.00;102865.21;1971722;73;30998;-68
2021/08/23 11:21:40;;;;;;;42.00;39.60;;;;;;;19.18;100.00;102861.97;1958688;73;31084;-74
2021/08/23 11:27:06;;;;;;;40.83;38.43;;;;;;;19.23;100.00;102859.12;1971570;73;30957;-75
2021/08/23 11:32:32;;;;;;;38.90;36.70;;;;;;;19.25;100.00;102859.68;1971606;73;31053;-76
2021/08/23 11:38:01;;;;;;;39.50;37.30;;;;;;;19.36;100.00;102859.84;1971570;73;31195;-77
2021/08/23 11:43:28;;;;;;;38.70;36.40;;;;;;;19.49;100.00;102857.78;1971610;73;31030;-73
2021/08/23 11:48:57;;;;;;;40.00;37.50;;;;;;;19.77;100.00;102847.61;1971638;73;30953;-66
2021/08/23 11:54:23;;;;;;;41.60;39.00;;;;;;;19.70;100.00;102857.84;1971578;73;31015;-68
2021/08/23 11:59:58;;;;;;;39.97;37.67;;;;;;;19.66;100.00;102855.35;1971744;73;31556;-77
2021/08/23 12:05:24;;;;;;;38.73;36.53;;;;;;;19.60;100.00;102857.94;1971633;73;30956;-71
2021/08/23 12:10:53;;;;;;;40.77;38.47;;;;;;;19.67;100.00;102861.27;1971538;73;30954;-69
2021/08/23 12:16:21;;;;;;;39.83;37.53;;;;;;;19.80;100.00;102862.55;1971700;73;31042;-66
2021/08/23 12:21:50;;;;;;;37.67;35.57;;;;;;;19.93;100.00;102853.37;1971497;71;30955;-77
2021/08/23 12:27:23;;;;;;;33.83;31.93;;;;;;;20.18;100.00;102849.39;1971719;73;30996;-74
2021/08/23 12:32:45;;;;;;;34.63;32.63;;;;;;;20.45;100.00;102849.63;1971679;72;31035;-75
2021/08/23 12:38:19;;;;;;;34.57;32.67;;;;;;;20.58;100.00;102850.27;1971597;73;30992;-69
2021/08/23 12:43:45;;;;;;;39.53;37.43;;;;;;;20.47;100.00;102840.27;1971547;73;30934;-73
2021/08/23 12:49:11;;;;;;;35.20;33.17;;;;;;;20.93;100.00;102828.27;1971600;72;30973;-74
2021/08/23 12:54:36;;;;;;;34.97;33.17;;;;;;;21.22;100.00;102819.87;1971802;73;30912;-76
2021/08/23 13:00:01;;;;;;;33.23;31.43;;;;;;;21.34;100.00;102823.64;1971896;73;31562;-73
2021/08/23 13:05:26;;;;;;;29.83;28.23;;;;;;;21.24;100.00;102818.16;1971772;73;31595;-74
2021/08/23 13:10:51;;;;;;;31.97;30.27;;;;;;;21.44;100.00;102819.20;1971560;73;31036;-67
2021/08/23 13:16:16;;;;;;;31.17;29.57;;;;;;;21.59;100.00;102824.58;1971587;73;31009;-74
2021/08/23 13:21:40;;;;;;;31.33;29.80;;;;;;;21.45;100.00;102818.05;1958454;73;30963;-76
2021/08/23 13:27:06;;;;;;;28.93;27.53;;;;;;;21.45;100.00;102817.20;1971755;73;31498;-70
2021/08/23 13:32:31;;;;;;;28.75;27.25;;;;;;;21.33;100.00;102813.48;1971814;73;31417;-68
2021/08/23 13:37:55;;;;;;;26.20;25.00;;;;;;;21.65;100.00;102803.51;1971765;73;31190;-74
2021/08/23 13:43:21;;;;;;;26.87;25.65;;;;;;;21.90;100.00;102810.67;1971611;73;31049;-74
2021/08/23 13:48:46;;;;;;;28.45;26.95;;;;;;;21.82;100.00;102817.64;1971552;73;31099;-75
2021/08/23 13:54:11;;;;;;;28.60;27.22;;;;;;;21.52;100.00;102822.72;1971499;72;32947;-75
2021/08/23 13:59:35;;;;;;;31.37;29.77;;;;;;;21.30;100.00;102816.36;1971595;73;31044;-75
2021/08/23 14:05:00;;;;;;;33.65;31.95;;;;;;;21.42;100.00;102822.92;1971626;73;30951;-67
2021/08/23 14:10:25;;;;;;;29.77;28.27;;;;;;;21.58;100.00;102820.06;1971691;73;31025;-76
2021/08/23 14:15:50;;;;;;;28.25;26.85;;;;;;;21.95;100.00;102805.52;1971779;73;30995;-67
2021/08/23 14:21:15;;;;;;;27.22;25.90;;;;;;;22.03;100.00;102797.13;1963323;73;30966;-73
2021/08/23 14:26:39;;;;;;;25.37;24.07;;;;;;;21.87;100.00;102797.70;1971735;73;31448;-67
2021/08/23 14:32:06;;;;;;;30.32;28.73;;;;;;;21.64;100.00;102787.72;1971604;73;30942;-74
2021/08/23 14:37:31;;;;;;;28.02;26.62;;;;;;;21.94;100.00;102791.94;1971593;73;30938;-74
2021/08/23 14:42:56;;;;;;;24.40;23.12;;;;;;;22.06;100.00;102782.33;1971808;73;31466;-74
2021/08/23 14:48:21;;;;;;;23.22;22.07;;;;;;;22.18;100.00;102776.12;1971711;72;31531;-78
2021/08/23 14:53:48;;;;;;;25.70;24.40;;;;;;;22.02;100.00;102778.45;1971743;73;31069;-75
2021/08/23 14:59:12;;;;;;;27.48;26.17;;;;;;;21.85;100.00;102781.63;1971479;73;31080;-68
2021/08/23 15:04:37;;;;;;;24.07;22.87;;;;;;;21.98;100.00;102778.83;1971550;73;31044;-69
2021/08/23 15:10:02;;;;;;;23.27;22.17;;;;;;;22.07;100.00;102767.03;1900118;75;31214;-66
2021/08/23 15:15:27;;;;;;;20.43;19.42;;;;;;;22.33;100.00;102765.87;1971532;72;31029;-69
2021/08/23 15:21:11;;;;;;;22.25;21.15;;;;;;;22.41;100.00;102768.53;2015701;71;30919;-69
2021/08/23 15:26:56;;;;;;;24.15;22.80;;;;;;;21.83;100.00;102783.92;2015795;71;30953;-75
2021/08/23 15:32:20;;;;;;;27.42;26.12;;;;;;;21.97;100.00;102784.22;1971707;73;31052;-69
2021/08/23 15:37:44;;;;;;;22.52;21.35;;;;;;;22.18;100.00;102781.78;1971747;73;31064;-73
2021/08/23 15:43:32;;;;;;;24.10;22.93;;;;;;;21.91;100.00;102787.43;2014739;71;30987;-74
2021/08/23 15:48:57;;;;;;;25.10;23.80;;;;;;;21.69;100.00;102785.36;1971567;73;31016;-75
2021/08/23 15:54:23;;;;;;;25.10;23.60;;;;;;;22.10;100.00;102785.36;1971769;73;31448;-67
2021/08/23 15:59:49;;;;;;;25.45;23.77;;;;;;;22.26;100.00;102786.69;1971712;73;31560;-71
2021/08/23 16:05:34;;;;;;;22.13;21.10;;;;;;;22.28;100.00;102782.98;2015823;71;31323;-75
2021/08/23 16:11:19;;;;;;;23.25;22.10;;;;;;;22.27;100.00;102782.71;2015103;71;30972;-70
2021/08/23 16:16:45;;;;;;;24.77;23.05;;;;;;;22.06;100.00;102783.75;1971790;73;33448;-74
2021/08/23 16:22:10;;;;;;;21.70;20.70;;;;;;;21.76;100.00;102788.60;1963344;71;31096;-68
2021/08/23 16:27:34;;;;;;;20.92;19.92;;;;;;;21.77;100.00;102792.54;1971936;73;30975;-76
2021/08/23 16:33:00;;;;;;;22.20;21.10;;;;;;;21.79;100.00;102784.56;1951678;73;31601;-73
2021/08/23 16:38:25;;;;;;;21.97;20.95;;;;;;;21.58;100.00;102782.45;1971643;73;31046;-70
2021/08/23 16:43:49;;;;;;;22.25;21.15;;;;;;;21.27;100.00;102790.10;1972189;73;31044;-76
2021/08/23 16:49:16;;;;;;;22.50;21.30;;;;;;;21.30;100.00;102785.27;1971817;73;30964;-79
2021/08/23 16:54:40;;;;;;;20.47;19.47;;;;;;;21.30;100.00;102780.18;1971779;73;30968;-67
2021/08/23 17:00:07;;;;;;;20.85;19.95;;;;;;;21.36;100.00;102777.50;1971561;73;31067;-75
2021/08/23 17:05:33;;;;;;;22.17;21.17;;;;;;;21.20;100.00;102776.12;1982655;71;88414;-78
2021/08/23 17:10:57;;;;;;;22.63;21.53;;;;;;;21.44;100.00;102781.59;1971845;73;31486;-78
2021/08/23 17:16:22;;;;;;;22.47;21.30;;;;;;;21.35;100.00;102772.42;1971899;73;31033;-78
2021/08/23 17:21:47;;;;;;;22.70;21.60;;;;;;;21.33;100.00;102771.91;1971848;73;30960;-78
2021/08/23 17:27:12;;;;;;;21.35;20.27;;;;;;;21.26;100.00;102772.90;1971782;73;31102;-78
2021/08/23 17:32:37;;;;;;;21.35;20.12;;;;;;;21.17;100.00;102772.50;1971930;73;30965;-78
2021/08/23 17:38:03;;;;;;;22.43;21.23;;;;;;;21.04;100.00;102770.45;1971765;73;30991;-76
2021/08/23 17:43:27;;;;;;;21.50;20.50;;;;;;;20.93;100.00;102774.58;1971964;73;30988;-76
2021/08/23 17:48:52;;;;;;;22.50;21.37;;;;;;;20.83;100.00;102774.20;1972023;73;30958;-76
2021/08/23 17:54:16;;;;;;;22.77;21.60;;;;;;;20.58;100.00;102779.66;1972080;73;31096;-77
2021/08/23 17:59:41;;;;;;;24.10;22.60;;;;;;;20.40;100.00;102782.78;1971790;73;30971;-74
2021/08/23 18:05:10;;;;;;;23.50;22.30;;;;;;;20.29;100.00;102793.06;1971828;73;30956;-75
2021/08/23 18:10:37;;;;;;;22.43;21.37;;;;;;;20.58;100.00;102787.33;1971946;73;31019;-77
2021/08/23 18:16:02;;;;;;;24.90;23.70;;;;;;;20.67;100.00;102786.30;1971899;73;31135;-77
2021/08/23 18:21:27;;;;;;;25.23;24.03;;;;;;;20.26;100.00;102789.45;1972096;73;33393;-76
2021/08/23 18:26:51;;;;;;;27.33;26.03;;;;;;;20.10;100.00;102790.80;1972036;73;31032;-76
2021/08/23 18:32:17;;;;;;;27.70;26.23;;;;;;;20.09;100.00;102798.99;1972015;73;31448;-78
2021/08/23 18:37:41;;;;;;;27.77;26.37;;;;;;;19.91;100.00;102801.47;1972205;73;30933;-78
2021/08/23 18:43:07;;;;;;;29.93;28.10;;;;;;;19.67;100.00;102807.70;1972038;73;31053;-78
2021/08/23 18:48:34;;;;;;;30.50;28.90;;;;;;;19.36;100.00;102812.78;1971746;73;31005;-77
2021/08/23 18:53:59;;;;;;;30.73;29.07;;;;;;;19.24;100.00;102814.31;1971930;73;33403;-78
2021/08/23 18:59:23;;;;;;;33.60;31.80;;;;;;;19.02;100.00;102810.56;1971796;73;30922;-78
2021/08/23 19:04:54;;;;;;;33.97;32.20;;;;;;;18.94;100.00;102816.83;1971757;73;30940;-78
2021/08/23 19:10:12;;;;;;;32.17;30.47;;;;;;;18.90;100.00;102822.78;1977700;72;31295;-76
2021/08/23 19:15:39;;;;;;;37.17;35.17;;;;;;;18.71;100.00;102821.78;1971896;73;31101;-79
2021/08/23 19:21:11;;;;;;;37.30;35.20;;;;;;;18.60;100.00;102840.73;1972001;73;31006;-78
2021/08/23 19:26:37;;;;;;;34.90;32.83;;;;;;;18.64;100.00;102839.86;1971798;73;31441;-78
2021/08/23 19:32:01;;;;;;;36.10;34.10;;;;;;;18.74;100.00;102849.38;1971832;73;30978;-78
2021/08/23 19:37:27;;;;;;;36.07;34.07;;;;;;;18.61;100.00;102852.27;1971772;73;30922;-78
2021/08/23 19:42:52;;;;;;;36.03;33.77;;;;;;;18.52;100.00;102874.56;1971810;73;31002;-78
2021/08/23 19:48:17;;;;;;;33.50;31.50;;;;;;;18.39;100.00;102875.72;1971800;73;30942;-78
2021/08/23 19:53:45;;;;;;;33.60;31.80;;;;;;;18.41;100.00;102885.54;1971907;73;30938;-78
2021/08/23 19:59:09;;;;;;;34.87;32.97;;;;;;;18.23;100.00;102890.40;1972099;72;32959;-82
2021/08/23 20:04:34;;;;;;;35.90;34.00;;;;;;;18.30;100.00;102892.92;1972298;73;30920;-81
2021/08/23 20:09:59;;;;;;;36.00;33.97;;;;;;;18.16;100.00;102894.94;1971804;73;30927;-76
2021/08/23 20:15:26;;;;;;;38.53;36.33;;;;;;;17.84;100.00;102900.67;1972032;73;30941;-77
2021/08/23 20:21:11;;;;;;;40.50;38.10;;;;;;;17.63;100.00;102898.42;2012750;70;30922;-75
2021/08/23 20:26:37;;;;;;;40.43;38.23;;;;;;;17.71;100.00;102904.91;1972277;73;30939;-78
2021/08/23 20:32:02;;;;;;;38.83;36.63;;;;;;;17.45;100.00;102913.05;1971705;73;31035;-71
2021/08/23 20:37:39;;;;;;;39.30;37.00;;;;;;;17.26;100.00;102916.97;1971995;73;31062;-78
2021/08/23 20:42:58;;;;;;;41.13;38.73;;;;;;;17.35;100.00;102925.13;1971710;73;31076;-72
2021/08/23 20:48:23;;;;;;;40.20;37.90;;;;;;;17.21;100.00;102926.23;1972254;73;30979;-74
2021/08/23 20:53:51;;;;;;;39.40;37.00;;;;;;;16.94;100.00;102922.00;1971786;73;31031;-75
2021/08/23 20:59:16;;;;;;;40.10;37.70;;;;;;;16.73;100.00;102933.15;1971768;73;31035;-76
2021/08/23 21:04:41;;;;;;;40.17;37.57;;;;;;;16.94;100.00;102926.20;1971916;73;33487;-76
2021/08/23 21:10:06;;;;;;;41.00;38.50;;;;;;;16.60;100.00;102935.07;1971791;73;33042;-76
2021/08/23 21:15:33;;;;;;;42.33;39.57;;;;;;;16.55;100.00;102941.21;1971795;73;32930;-79
2021/08/23 21:20:59;;;;;;;42.53;40.03;;;;;;;16.48;100.00;102947.61;1967142;73;33014;-74
2021/08/23 21:26:23;;;;;;;45.07;42.33;;;;;;;16.29;100.00;102945.31;1971762;73;30994;-78
2021/08/23 21:31:48;;;;;;;49.83;47.13;;;;;;;16.19;100.00;102945.24;1971765;72;33042;-77
2021/08/23 21:37:13;;;;;;;45.77;42.97;;;;;;;16.07;100.00;102958.64;1971876;73;32947;-76
2021/08/23 21:42:39;;;;;;;46.93;44.43;;;;;;;15.76;100.00;102956.18;1971933;73;33397;-80
2021/08/23 21:48:06;;;;;;;49.17;46.37;;;;;;;15.92;100.00;102963.58;1971921;73;33021;-77
2021/08/23 21:53:31;;;;;;;50.10;47.30;;;;;;;15.66;100.00;102965.08;1971866;72;33033;-77
2021/08/23 21:58:56;;;;;;;50.47;47.47;;;;;;;15.51;100.00;102967.19;1972317;73;31463;-81
2021/08/23 22:04:22;;;;;;;49.50;46.70;;;;;;;15.71;100.00;102974.35;1971981;73;32934;-80
2021/08/23 22:09:53;;;;;;;46.90;44.10;;;;;;;15.61;100.00;102978.48;1972168;73;32899;-81
2021/08/23 22:15:20;;;;;;;46.37;43.47;;;;;;;15.63;100.00;102979.05;1972316;73;33376;-81
2021/08/23 22:20:46;;;;;;;46.93;43.93;;;;;;;15.68;100.00;102986.66;1972033;73;33581;-81
2021/08/23 22:26:11;;;;;;;48.40;45.43;;;;;;;15.36;100.00;102981.85;1972156;73;33110;-81
2021/08/23 22:31:40;;;;;;;47.23;44.23;;;;;;;15.40;100.00;102980.20;1941444;74;33093;-80
2021/08/23 22:37:05;;;;;;;47.70;44.53;;;;;;;15.44;100.00;102984.75;1972202;73;33015;-81
2021/08/23 22:42:32;;;;;;;45.37;42.57;;;;;;;15.07;100.00;102983.23;1971819;73;32935;-79
2021/08/23 22:48:01;;;;;;;48.13;45.03;;;;;;;15.13;100.00;102988.34;2062708;69;32805;-79
2021/08/23 22:53:26;;;;;;;49.73;46.80;;;;;;;14.76;100.00;102996.61;1972037;73;33660;-81
2021/08/23 22:58:51;;;;;;;45.40;42.50;;;;;;;14.77;100.00;102999.13;1972035;73;32918;-81
2021/08/23 23:04:15;;;;;;;48.40;45.43;;;;;;;14.86;100.00;102993.37;1971934;73;32935;-82
2021/08/23 23:09:40;;;;;;;44.97;42.07;;;;;;;14.52;100.00;103002.45;1972023;73;32900;-79
2021/08/23 23:15:07;;;;;;;47.83;44.83;;;;;;;14.55;100.00;103000.53;1972051;73;32980;-80
2021/08/23 23:20:31;;;;;;;49.10;46.00;;;;;;;14.50;100.00;103007.45;1971909;73;32995;-81
2021/08/23 23:25:56;;;;;;;49.17;46.17;;;;;;;14.69;100.00;103021.12;1971819;73;33022;-81
2021/08/23 23:31:21;;;;;;;43.87;40.97;;;;;;;14.76;100.00;103019.00;1971824;73;32981;-80
2021/08/23 23:36:48;;;;;;;42.07;39.47;;;;;;;14.91;100.00;103024.22;1971808;73;32900;-80
2021/08/23 23:45:00;;;;;;;44.13;41.33;;;;;;;14.93;100.00;103026.77;2023562;71;32712;-80
2021/08/23 23:47:30;;;;;;;44.77;41.67;;;;;;;14.74;100.00;103032.39;1993772;72;26181;-80
2021/08/23 23:50:00;;;;;;;47.03;44.13;;;;;;;14.67;100.00;103034.55;1993669;72;26185;-80
2021/08/23 23:52:30;;;;;;;45.70;42.13;;;;;;;14.56;100.00;103035.80;1993811;72;26192;-81
2021/08/23 23:55:00;;;;;;;42.70;39.60;;;;;;;14.41;100.00;103036.98;1993693;72;26197;-81
2021/08/23 23:57:30;;;;;;;42.07;39.27;;;;;;;14.44;100.00;103032.27;1993843;72;26152;-82
